Date,TemperatureHighF,TemperatureAvgF,TemperatureLowF,DewpointHighF,DewpointAvgF,DewpointLowF,HumidityHigh,HumidityAvg,HumidityLow,PressureMaxIn,PressureMinIn,WindSpeedMaxMPH,WindSpeedAvgMPH,GustSpeedMaxMPH,PrecipitationSumIn
2013-1-1,18.3,2.7,-14.4,12.0,-4.9,-21.7,76,70,61,30.22,29.71,6,0,6,0.00
2013-1-2,22.5,19.1,16.5,15.2,12.9,10.0,80,77,71,29.75,29.64,8,1,9,0.00
2013-1-3,21.9,16.3,9.9,17.0,9.2,2.0,81,73,62,29.91,29.70,13,2,16,0.00
2013-1-4,30.9,18.7,8.6,19.2,11.5,2.6,81,74,61,29.81,29.67,9,1,12,0.00
2013-1-5,25.7,14.9,3.9,17.4,8.6,-2.0,80,76,66,29.78,29.53,10,0,12,0.00
2013-1-6,23.7,16.5,7.2,16.1,9.1,0.6,80,72,60,29.88,29.68,10,1,14,0.00
2013-1-7,36.7,27.0,14.7,26.4,19.6,9.3,82,74,63,29.68,29.54,10,2,10,0.00
2013-1-8,38.5,24.7,9.0,28.1,18.2,3.5,83,76,65,29.67,29.43,9,1,12,0.00
2013-1-9,33.8,28.2,17.8,25.9,20.0,12.7,81,71,60,30.02,29.55,18,3,25,0.00
2013-1-10,44.2,31.4,16.3,29.8,23.0,11.3,84,72,51,29.99,29.44,10,1,11,0.19
2013-1-11,39.9,36.8,34.2,35.9,32.9,29.8,88,86,83,29.44,29.05,7,0,7,0.00
2013-1-12,39.0,18.2,5.7,35.8,10.6,-1.4,88,72,61,29.75,29.05,17,5,20,0.00
2013-1-13,10.0,5.2,1.0,1.3,-2.0,-4.7,77,72,65,29.89,29.72,9,0,10,0.00
2013-1-14,12.0,4.8,-1.8,3.4,-2.1,-7.8,77,73,62,30.07,29.89,8,0,13,0.00
2013-1-15,26.4,15.7,4.6,15.0,7.9,-1.0,80,71,56,29.95,29.47,13,1,13,0.00
2013-1-16,33.8,24.1,9.1,26.7,13.4,-5.0,82,64,45,29.93,29.31,21,6,26,0.00
2013-1-17,15.3,9.8,3.0,3.9,-1.1,-5.1,74,61,52,30.06,29.93,14,2,16,0.00
2013-1-18,39.9,23.2,10.8,28.2,15.9,4.1,82,74,62,29.97,29.40,12,1,13,0.00
2013-1-19,37.2,20.0,1.2,27.5,11.8,-7.5,85,71,54,29.87,29.37,29,6,35,0.00
2013-1-20,6.6,0.4,-5.1,-4.9,-8.9,-14.1,70,64,54,30.07,29.86,18,4,23,0.00
2013-1-21,-4.7,-8.9,-13.7,-14.4,-19.2,-23.0,65,60,53,30.02,29.93,17,4,22,0.00
2013-1-22,3.6,-7.4,-17.7,-9.0,-16.5,-25.3,69,64,54,30.35,29.96,12,1,13,0.00
2013-1-23,14.9,3.5,-8.7,3.5,-7.3,-19.8,72,60,47,30.60,30.18,31,6,36,0.00
2013-1-24,9.3,0.1,-9.8,-0.7,-10.9,-20.0,63,59,53,30.65,30.15,10,1,13,0.00
2013-1-25,17.8,12.7,3.4,10.1,2.8,-4.8,75,64,54,30.28,29.89,23,6,24,0.00
2013-1-26,21.0,9.8,-5.8,10.1,0.0,-12.5,73,64,52,30.33,30.12,12,1,14,0.00
2013-1-27,35.4,26.2,16.9,24.9,18.0,8.1,83,71,57,30.12,29.81,13,1,13,0.00
2013-1-28,37.2,30.8,25.3,30.0,25.8,20.6,86,81,74,29.90,29.64,0,0,0,0.02
2013-1-29,38.1,31.8,25.2,30.2,25.7,17.1,86,78,69,29.75,29.52,22,5,24,0.09
2013-1-30,25.0,16.4,9.3,16.6,7.7,0.6,77,68,60,29.74,29.64,25,11,32,0.00
2013-1-31,9.3,2.3,-9.0,0.6,-7.3,-18.6,73,64,54,30.22,29.72,26,8,29,0.00